createdAt,value
2022-08-21T00:01:16.653Z,19.07
2022-08-21T00:03:46.351Z,18.88
2022-08-21T00:06:16.505Z,19.09
2022-08-21T00:08:46.654Z,19.07
2022-08-21T00:11:16.899Z,19.07
2022-08-21T00:13:49.557Z,19.14
2022-08-21T00:16:19.242Z,19.09
2022-08-21T00:18:49.154Z,18.97
2022-08-21T00:21:19.027Z,19.16
2022-08-21T00:23:48.702Z,19.13
2022-08-21T00:26:18.363Z,19.01
2022-08-21T00:28:50.593Z,18.90
2022-08-21T00:31:21.592Z,18.86
2022-08-21T00:33:51.371Z,18.80
2022-08-21T00:36:21.237Z,18.71
2022-08-21T00:38:50.973Z,18.69
2022-08-21T00:41:36.724Z,18.61
2022-08-21T00:44:13.073Z,18.48
2022-08-21T00:46:44.293Z,18.53
2022-08-21T00:49:16.126Z,18.58
2022-08-21T00:51:51.175Z,18.59
2022-08-21T00:54:22.261Z,18.53
2022-08-21T00:56:55.618Z,18.62
2022-08-21T00:59:36.217Z,18.65
2022-08-21T01:02:08.274Z,18.60
2022-08-21T01:04:38.548Z,18.61
2022-08-21T01:07:09.230Z,18.58
2022-08-21T01:09:39.815Z,18.49
2022-08-21T01:12:10.237Z,18.50
2022-08-21T01:14:44.854Z,18.54
2022-08-21T01:17:16.590Z,18.56
2022-08-21T01:19:46.978Z,18.56
2022-08-21T01:22:20.460Z,18.64
2022-08-21T01:24:51.113Z,18.57
2022-08-21T01:27:20.824Z,18.53
2022-08-21T01:29:58.933Z,18.44
2022-08-21T01:32:28.705Z,18.43
2022-08-21T01:34:58.410Z,18.27
2022-08-21T01:37:30.680Z,18.22
2022-08-21T01:40:00.441Z,18.11
2022-08-21T01:42:30.391Z,18.08
2022-08-21T01:45:00.184Z,18.05
2022-08-21T01:47:30.206Z,18.07
2022-08-21T01:49:59.917Z,17.97
2022-08-21T01:52:32.737Z,17.90
2022-08-21T01:55:02.447Z,17.85
2022-08-21T01:57:32.203Z,17.80
2022-08-21T02:00:02.184Z,17.79
2022-08-21T02:02:41.941Z,17.69
2022-08-21T02:05:14.244Z,17.89
2022-08-21T02:07:49.073Z,17.92
2022-08-21T02:10:22.393Z,17.98
2022-08-21T02:12:52.238Z,17.88
2022-08-21T02:15:22.412Z,17.86
2022-08-21T02:17:55.558Z,17.77
2022-08-21T02:20:28.645Z,17.63
2022-08-21T02:23:01.327Z,17.71
2022-08-21T02:25:32.041Z,17.68
2022-08-21T02:28:05.705Z,17.59
2022-08-21T02:30:38.960Z,17.71
2022-08-21T02:33:11.938Z,17.78
2022-08-21T02:35:43.330Z,17.80
2022-08-21T02:38:18.016Z,17.87
2022-08-21T02:40:50.883Z,17.84
2022-08-21T02:43:22.135Z,17.85
2022-08-21T02:45:53.778Z,17.89
2022-08-21T02:48:26.627Z,17.96
2022-08-21T02:50:59.354Z,17.98
2022-08-21T02:53:32.702Z,17.99
2022-08-21T02:56:05.855Z,18.02
2022-08-21T02:58:39.567Z,17.96
2022-08-21T03:01:10.686Z,17.88
2022-08-21T03:03:42.051Z,17.98
2022-08-21T03:06:13.994Z,17.98
2022-08-21T03:08:47.874Z,17.90
2022-08-21T03:11:21.511Z,17.88
2022-08-21T03:13:51.182Z,17.80
2022-08-21T03:16:21.733Z,17.78
2022-08-21T03:18:51.583Z,17.86
2022-08-21T03:21:21.246Z,17.92
2022-08-21T03:23:55.154Z,18.07
2022-08-21T03:26:25.309Z,18.07
2022-08-21T03:28:55.100Z,18.05
2022-08-21T03:31:24.753Z,18.10
2022-08-21T03:33:56.142Z,18.01
2022-08-21T03:36:25.929Z,18.02
2022-08-21T03:38:58.222Z,18.10
2022-08-21T03:41:27.850Z,18.12
2022-08-21T03:43:57.546Z,18.13
2022-08-21T03:46:27.224Z,18.19
2022-08-21T03:48:57.080Z,18.18
2022-08-21T03:51:26.755Z,18.24
2022-08-21T03:53:59.025Z,18.28
2022-08-21T03:56:29.097Z,18.30
2022-08-21T03:58:58.760Z,18.32
2022-08-21T04:01:28.574Z,18.36
2022-08-21T04:03:58.430Z,18.35
2022-08-21T04:06:28.574Z,18.30
2022-08-21T04:09:00.828Z,18.29
2022-08-21T04:11:30.458Z,18.23
2022-08-21T04:14:00.109Z,18.15
2022-08-21T04:16:29.760Z,18.10
2022-08-21T04:18:59.368Z,17.98
2022-08-21T04:21:29.046Z,17.88
2022-08-21T04:24:01.728Z,17.83
2022-08-21T04:26:32.150Z,17.73
2022-08-21T04:29:01.897Z,17.76
2022-08-21T04:31:31.836Z,17.79
2022-08-21T04:34:01.539Z,17.88
2022-08-21T04:36:31.394Z,17.98
2022-08-21T04:39:03.881Z,18.01
2022-08-21T04:41:34.741Z,17.97
2022-08-21T04:44:04.369Z,18.05
2022-08-21T04:46:34.130Z,18.19
2022-08-21T04:49:03.837Z,18.19
2022-08-21T04:51:36.858Z,18.30
2022-08-21T04:54:15.624Z,18.34
2022-08-21T04:56:47.952Z,18.31
2022-08-21T04:59:21.643Z,18.30
2022-08-21T05:01:52.884Z,18.15
2022-08-21T05:04:26.997Z,18.33
2022-08-21T05:06:58.490Z,18.44
2022-08-21T05:09:31.786Z,18.62
2022-08-21T05:12:01.618Z,18.68
2022-08-21T05:14:31.294Z,18.70
2022-08-21T05:17:00.994Z,18.73
2022-08-21T05:19:30.677Z,18.72
2022-08-21T05:22:01.838Z,18.68
2022-08-21T05:24:34.244Z,18.73
2022-08-21T05:27:04.638Z,18.69
2022-08-21T05:29:34.297Z,18.73
2022-08-21T05:32:04.241Z,18.82
2022-08-21T05:34:33.955Z,19.05
2022-08-21T05:37:07.520Z,19.09
2022-08-21T05:40:20.238Z,19.18
2022-08-21T05:42:29.732Z,19.21
2022-08-21T05:44:59.353Z,19.23
2022-08-21T05:47:29.613Z,19.23
2022-08-21T05:49:59.342Z,19.27
2022-08-21T05:52:29.054Z,19.36
2022-08-21T05:55:01.351Z,19.40
2022-08-21T05:57:31.206Z,19.63
2022-08-21T06:00:00.860Z,19.90
2022-08-21T06:02:31.750Z,20.16
2022-08-21T06:05:01.377Z,20.42
2022-08-21T06:07:31.081Z,20.60
2022-08-21T06:10:03.386Z,20.72
2022-08-21T06:12:33.053Z,20.83
2022-08-21T06:15:02.684Z,21.07
2022-08-21T06:17:32.317Z,21.28
2022-08-21T06:20:01.965Z,21.56
2022-08-21T06:22:32.230Z,21.59
2022-08-21T06:25:04.472Z,21.64
2022-08-21T06:27:34.200Z,21.62
2022-08-21T06:30:03.846Z,21.60
2022-08-21T06:32:33.526Z,21.73
2022-08-21T06:35:03.248Z,21.98
2022-08-21T06:37:33.068Z,22.19
2022-08-21T06:40:05.723Z,22.29
2022-08-21T06:42:42.942Z,22.41
2022-08-21T06:45:14.048Z,22.66
2022-08-21T06:47:43.744Z,22.60
2022-08-21T06:50:14.038Z,22.73
2022-08-21T06:52:43.865Z,22.84
2022-08-21T06:55:22.363Z,23.00
2022-08-21T06:57:53.414Z,22.83
2022-08-21T07:00:23.502Z,23.17
2022-08-21T07:02:53.275Z,23.14
2022-08-21T07:05:23.166Z,22.89
2022-08-21T07:07:52.952Z,22.91
2022-08-21T07:10:26.206Z,23.27
2022-08-21T07:13:00.679Z,22.95
2022-08-21T07:15:32.335Z,23.06
2022-08-21T07:18:02.463Z,23.09
2022-08-21T07:20:33.650Z,23.06
2022-08-21T07:23:06.081Z,22.90
2022-08-21T07:25:38.845Z,22.88
2022-08-21T07:28:08.589Z,22.96
2022-08-21T07:30:38.253Z,22.99
2022-08-21T07:33:08.338Z,23.04
2022-08-21T07:35:38.016Z,23.08
2022-08-21T07:38:07.841Z,23.15
2022-08-21T07:40:40.178Z,23.11
2022-08-21T07:43:10.095Z,23.29
2022-08-21T07:45:39.805Z,23.39
2022-08-21T07:48:09.560Z,23.51
2022-08-21T07:50:40.268Z,23.46
2022-08-21T07:53:09.995Z,23.52
2022-08-21T07:55:42.479Z,23.54
2022-08-21T07:58:12.390Z,23.52
2022-08-21T08:00:42.857Z,23.62
2022-08-21T08:03:12.801Z,23.63
2022-08-21T08:05:42.550Z,23.73
2022-08-21T08:08:12.691Z,23.78
2022-08-21T08:10:46.073Z,23.82
2022-08-21T08:13:15.713Z,23.73
2022-08-21T08:15:45.453Z,23.70
2022-08-21T08:18:16.176Z,23.77
2022-08-21T08:20:46.962Z,23.84
2022-08-21T08:23:18.386Z,23.94
2022-08-21T08:25:50.685Z,24.00
2022-08-21T08:28:22.880Z,24.04
2022-08-21T08:30:53.433Z,24.13
2022-08-21T08:33:25.202Z,24.16
2022-08-21T08:35:56.463Z,24.15
2022-08-21T08:38:28.447Z,24.19
2022-08-21T08:41:05.450Z,24.19
2022-08-21T08:43:38.025Z,24.20
2022-08-21T08:46:15.430Z,24.19
2022-08-21T08:48:55.382Z,24.32
2022-08-21T08:51:29.263Z,24.28
2022-08-21T08:54:05.350Z,24.36
2022-08-21T08:56:38.085Z,24.39
2022-08-21T08:59:15.230Z,24.50
2022-08-21T09:01:45.966Z,24.59
2022-08-21T09:04:21.902Z,24.68
2022-08-21T09:07:02.132Z,24.69
2022-08-21T09:09:45.342Z,24.67
2022-08-21T09:12:22.508Z,24.70
2022-08-21T09:15:06.045Z,24.82
2022-08-21T09:17:46.023Z,25.00
2022-08-21T09:20:26.472Z,25.14
2022-08-21T09:23:11.640Z,25.20
2022-08-21T09:25:49.552Z,25.12
2022-08-21T09:28:21.905Z,25.17
2022-08-21T09:30:52.684Z,25.11
2022-08-21T09:33:24.010Z,25.04
2022-08-21T09:35:58.737Z,25.18
2022-08-21T09:38:32.739Z,25.33
2022-08-21T09:41:08.015Z,25.36
2022-08-21T09:43:41.287Z,25.48
2022-08-21T09:46:13.834Z,25.54
2022-08-21T09:48:47.412Z,25.39
2022-08-21T09:51:20.344Z,25.51
2022-08-21T09:53:53.156Z,25.67
2022-08-21T09:56:42.445Z,25.62
2022-08-21T09:59:36.352Z,25.53
2022-08-21T10:02:25.399Z,25.56
2022-08-21T10:04:57.222Z,25.53
2022-08-21T10:07:29.888Z,25.64
2022-08-21T10:10:09.852Z,25.79
2022-08-21T10:12:48.886Z,25.86
2022-08-21T10:15:28.042Z,26.02
2022-08-21T10:18:07.669Z,26.03
2022-08-21T10:20:44.460Z,25.86
2022-08-21T10:23:32.116Z,26.04
2022-08-21T10:26:14.129Z,26.01
2022-08-21T10:29:00.014Z,26.16
2022-08-21T10:31:40.991Z,26.22
2022-08-21T10:34:27.513Z,26.22
2022-08-21T10:37:16.550Z,26.45
2022-08-21T10:39:57.201Z,26.46
2022-08-21T10:42:36.990Z,26.14
2022-08-21T10:45:17.650Z,25.86
2022-08-21T10:47:58.006Z,25.96
2022-08-21T10:50:34.957Z,26.27
2022-08-21T10:53:19.352Z,26.59
2022-08-21T10:55:56.009Z,26.92
2022-08-21T10:58:31.006Z,27.06
2022-08-21T11:01:08.494Z,27.18
2022-08-21T11:03:45.239Z,27.04
2022-08-21T11:06:18.363Z,27.18
2022-08-21T11:08:53.265Z,27.11
2022-08-21T11:11:28.143Z,27.33
2022-08-21T11:14:08.173Z,27.29
2022-08-21T11:16:45.674Z,27.60
2022-08-21T11:19:25.019Z,27.73
2022-08-21T11:22:01.393Z,27.85
2022-08-21T11:24:35.815Z,27.59
2022-08-21T11:27:13.624Z,27.64
2022-08-21T11:29:47.578Z,27.51
2022-08-21T11:32:47.288Z,27.40
2022-08-21T11:35:26.441Z,27.45
2022-08-21T11:38:16.188Z,27.78
2022-08-21T11:40:58.296Z,27.98
2022-08-21T11:43:40.206Z,28.20
2022-08-21T11:46:21.321Z,28.14
2022-08-21T11:49:10.127Z,27.82
2022-08-21T11:51:48.158Z,27.42
2022-08-21T11:54:27.782Z,27.79
2022-08-21T11:57:02.550Z,28.10
2022-08-21T11:59:41.019Z,28.23
2022-08-21T12:02:16.217Z,28.36
2022-08-21T12:04:50.142Z,28.34
2022-08-21T12:07:35.088Z,28.09
2022-08-21T12:10:07.993Z,27.92
2022-08-21T12:12:39.775Z,27.91
2022-08-21T12:15:31.267Z,27.94
2022-08-21T12:18:05.361Z,28.13
2022-08-21T12:20:50.571Z,28.11
2022-08-21T12:23:32.926Z,28.33
2022-08-21T12:26:17.896Z,28.49
2022-08-21T12:28:47.685Z,28.74
2022-08-21T12:31:26.929Z,28.79
2022-08-21T12:34:04.284Z,28.81
2022-08-21T12:36:45.396Z,29.15
2022-08-21T12:39:22.933Z,28.74
2022-08-21T12:42:01.649Z,28.56
2022-08-21T12:44:38.229Z,28.33
2022-08-21T12:47:16.988Z,27.84
2022-08-21T12:49:55.701Z,27.83
2022-08-21T12:52:28.270Z,28.12
2022-08-21T12:55:00.573Z,28.36
2022-08-21T12:57:31.872Z,28.34
2022-08-21T13:00:04.270Z,28.24
2022-08-21T13:02:36.635Z,28.29
2022-08-21T13:05:08.389Z,28.44
2022-08-21T13:07:40.506Z,28.38
2022-08-21T13:10:27.712Z,28.67
2022-08-21T13:12:59.896Z,28.76
2022-08-21T13:15:33.634Z,28.63
2022-08-21T13:18:05.507Z,28.41
2022-08-21T13:20:39.216Z,28.24
2022-08-21T13:23:26.675Z,28.27
2022-08-21T13:25:59.803Z,28.61
2022-08-21T13:28:38.692Z,28.61
2022-08-21T13:31:13.983Z,28.47
2022-08-21T13:33:48.036Z,28.37
2022-08-21T13:36:22.943Z,28.20
2022-08-21T13:38:54.530Z,28.08
2022-08-21T13:41:32.145Z,28.04
2022-08-21T13:44:05.738Z,27.95
2022-08-21T13:46:39.881Z,28.23
2022-08-21T13:49:10.887Z,28.20
2022-08-21T13:51:41.236Z,28.14
2022-08-21T13:54:19.662Z,28.16
2022-08-21T13:56:52.247Z,27.99
2022-08-21T13:59:31.145Z,28.20
2022-08-21T14:02:05.318Z,28.25
2022-08-21T14:04:39.139Z,28.33
2022-08-21T14:07:20.096Z,28.45
2022-08-21T14:09:51.333Z,28.61
2022-08-21T14:12:31.847Z,28.85
2022-08-21T14:15:08.611Z,28.96
2022-08-21T14:17:45.065Z,28.88
2022-08-21T14:20:31.483Z,28.56
2022-08-21T14:23:01.287Z,28.33
2022-08-21T14:25:34.230Z,28.31
2022-08-21T14:28:22.143Z,28.25
2022-08-21T14:30:58.450Z,28.31
2022-08-21T14:33:31.563Z,29.32
2022-08-21T14:36:02.965Z,28.74
2022-08-21T14:38:33.261Z,28.49
2022-08-21T14:41:16.809Z,28.48
2022-08-21T14:44:04.044Z,28.33
2022-08-21T14:46:45.837Z,28.46
2022-08-21T14:49:27.447Z,28.49
2022-08-21T14:51:58.720Z,28.56
2022-08-21T14:54:31.069Z,28.65
2022-08-21T14:57:04.285Z,28.63
2022-08-21T14:59:39.120Z,28.39
2022-08-21T15:02:09.687Z,28.32
2022-08-21T15:04:39.514Z,28.37
2022-08-21T15:07:09.322Z,28.27
2022-08-21T15:09:38.927Z,28.10
2022-08-21T15:12:10.932Z,28.27
2022-08-21T15:14:45.779Z,28.42
2022-08-21T15:17:15.801Z,28.53
2022-08-21T15:19:45.412Z,28.51
2022-08-21T15:22:18.756Z,28.65
2022-08-21T15:24:48.994Z,28.82
2022-08-21T15:27:20.877Z,29.02
2022-08-21T15:29:54.421Z,29.70
2022-08-21T15:32:27.329Z,30.18
2022-08-21T15:34:58.464Z,30.58
2022-08-21T15:37:28.838Z,30.56
2022-08-21T15:39:58.686Z,30.27
2022-08-21T15:42:30.476Z,29.66
2022-08-21T15:45:02.943Z,29.12
2022-08-21T15:47:35.987Z,28.86
2022-08-21T15:50:10.512Z,28.93
2022-08-21T15:52:40.243Z,28.53
2022-08-21T15:55:11.419Z,28.18
2022-08-21T15:57:57.141Z,28.26
2022-08-21T16:00:35.130Z,28.45
2022-08-21T16:03:08.269Z,28.47
2022-08-21T16:05:38.882Z,28.36
2022-08-21T16:08:08.542Z,28.50
2022-08-21T16:10:39.191Z,28.55
2022-08-21T16:13:15.183Z,28.51
2022-08-21T16:15:47.524Z,28.27
2022-08-21T16:18:17.636Z,28.17
2022-08-21T16:20:52.736Z,28.14
2022-08-21T16:23:22.412Z,27.99
2022-08-21T16:25:53.192Z,28.09
2022-08-21T16:28:25.011Z,27.98
2022-08-21T16:30:57.188Z,27.86
2022-08-21T16:33:33.763Z,27.78
2022-08-21T16:36:05.961Z,27.58
2022-08-21T16:38:38.072Z,27.53
2022-08-21T16:41:16.704Z,27.56
2022-08-21T16:43:47.416Z,27.45
2022-08-21T16:46:24.809Z,27.35
2022-08-21T16:48:54.640Z,27.13
2022-08-21T16:51:25.307Z,27.21
2022-08-21T16:53:55.066Z,27.09
2022-08-21T16:56:24.806Z,27.12
2022-08-21T16:58:56.763Z,27.15
2022-08-21T17:01:32.553Z,27.13
2022-08-21T17:04:03.878Z,27.05
2022-08-21T17:06:33.937Z,26.94
2022-08-21T17:09:03.998Z,26.96
2022-08-21T17:11:37.043Z,26.88
2022-08-21T17:14:10.306Z,26.88
2022-08-21T17:16:44.515Z,26.88
2022-08-21T17:19:14.654Z,26.85
2022-08-21T17:21:46.343Z,26.91
2022-08-21T17:24:16.520Z,26.77
2022-08-21T17:26:47.183Z,26.80
2022-08-21T17:29:18.918Z,26.78
2022-08-21T17:31:52.247Z,26.85
2022-08-21T17:34:23.022Z,26.80
2022-08-21T17:36:56.934Z,26.76
2022-08-21T17:39:26.853Z,26.72
2022-08-21T17:41:58.301Z,26.65
2022-08-21T17:44:30.041Z,26.68
2022-08-21T17:47:02.396Z,26.56
2022-08-21T17:49:32.035Z,26.48
2022-08-21T17:52:02.969Z,26.59
2022-08-21T17:54:32.764Z,26.48
2022-08-21T17:57:02.663Z,26.42
2022-08-21T17:59:32.349Z,26.35
2022-08-21T18:02:12.576Z,26.31
2022-08-21T18:04:50.374Z,26.26
2022-08-21T18:07:32.032Z,26.14
2022-08-21T18:10:02.990Z,26.23
2022-08-21T18:12:33.521Z,26.17
2022-08-21T18:15:04.743Z,26.11
2022-08-21T18:17:38.186Z,25.72
2022-08-21T18:20:12.194Z,25.93
2022-08-21T18:22:42.879Z,25.62
2022-08-21T18:25:13.519Z,25.67
2022-08-21T18:27:45.831Z,25.45
2022-08-21T18:30:19.080Z,25.56
2022-08-21T18:32:51.533Z,25.50
2022-08-21T18:35:21.343Z,25.33
2022-08-21T18:37:50.913Z,25.29
2022-08-21T18:40:21.260Z,25.18
2022-08-21T18:42:55.863Z,25.09
2022-08-21T18:45:26.174Z,25.05
2022-08-21T18:48:03.616Z,25.05
2022-08-21T18:50:33.371Z,24.91
2022-08-21T18:53:07.936Z,24.85
2022-08-21T18:55:53.706Z,24.70
2022-08-21T18:58:28.811Z,24.66
2022-08-21T19:00:59.118Z,24.64
2022-08-21T19:03:31.370Z,24.69
2022-08-21T19:06:01.249Z,24.54
2022-08-21T19:08:32.495Z,24.40
2022-08-21T19:11:03.269Z,24.39
2022-08-21T19:13:34.346Z,24.28
2022-08-21T19:16:05.809Z,24.14
2022-08-21T19:18:44.073Z,24.14
2022-08-21T19:21:14.131Z,24.02
2022-08-21T19:23:52.602Z,23.82
2022-08-21T19:26:24.659Z,23.89
2022-08-21T19:28:59.749Z,23.88
2022-08-21T19:31:34.000Z,23.71
2022-08-21T19:34:09.673Z,23.60
2022-08-21T19:36:42.252Z,23.58
2022-08-21T19:39:12.624Z,23.23
2022-08-21T19:41:45.577Z,23.37
2022-08-21T19:44:20.578Z,23.15
2022-08-21T19:46:52.673Z,23.30
2022-08-21T19:49:27.525Z,23.29
2022-08-21T19:51:58.359Z,23.11
2022-08-21T19:54:31.184Z,23.02
2022-08-21T19:57:04.674Z,22.97
2022-08-21T19:59:37.683Z,22.90
2022-08-21T20:02:10.204Z,22.73
2022-08-21T20:07:33.288Z,22.52
2022-08-21T20:10:03.548Z,22.56
2022-08-21T20:12:33.568Z,22.48
2022-08-21T20:15:03.496Z,22.48
2022-08-21T20:17:38.799Z,22.37
2022-08-21T20:20:11.960Z,22.43
2022-08-21T20:22:41.998Z,22.29
2022-08-21T20:25:12.882Z,22.00
2022-08-21T20:27:44.667Z,22.13
2022-08-21T20:30:22.637Z,21.88
2022-08-21T20:32:52.673Z,21.88
2022-08-21T20:35:25.920Z,21.87
2022-08-21T20:37:58.718Z,21.71
2022-08-21T20:40:33.010Z,21.91
2022-08-21T20:43:21.546Z,21.84
2022-08-21T20:45:52.106Z,21.85
2022-08-21T20:48:28.055Z,21.87
2022-08-21T20:51:07.915Z,21.82
2022-08-21T20:53:44.495Z,21.70
2022-08-21T20:56:23.038Z,21.66
2022-08-21T20:58:57.886Z,21.63
2022-08-21T21:01:34.199Z,21.52
2022-08-21T21:04:09.979Z,21.57
2022-08-21T21:07:02.418Z,21.40
2022-08-21T21:09:40.291Z,21.50
2022-08-21T21:12:18.715Z,21.42
2022-08-21T21:15:01.587Z,21.47
2022-08-21T21:17:40.214Z,21.49
2022-08-21T21:20:14.416Z,21.48
2022-08-21T21:22:51.838Z,21.43
2022-08-21T21:25:26.898Z,21.38
2022-08-21T21:28:13.591Z,21.36
2022-08-21T21:30:46.491Z,21.29
2022-08-21T21:33:19.267Z,21.33
2022-08-21T21:35:52.291Z,21.35
2022-08-21T21:38:30.635Z,21.40
2022-08-21T21:41:11.742Z,21.25
2022-08-21T21:44:00.968Z,21.12
2022-08-21T21:46:46.134Z,21.13
2022-08-21T21:49:38.841Z,21.04
2022-08-21T21:52:18.447Z,20.98
2022-08-21T21:55:06.015Z,20.61
2022-08-21T21:58:03.539Z,20.88
2022-08-21T22:00:36.587Z,20.89
2022-08-21T22:03:14.147Z,20.85
2022-08-21T22:06:00.356Z,20.85
2022-08-21T22:08:42.887Z,20.81
2022-08-21T22:11:29.605Z,20.83
2022-08-21T22:14:06.302Z,20.01
2022-08-21T22:16:38.872Z,20.74
2022-08-21T22:19:16.546Z,20.75
2022-08-21T22:21:52.867Z,20.77
2022-08-21T22:24:28.271Z,20.80
2022-08-21T22:27:03.289Z,20.80
2022-08-21T22:29:48.292Z,20.58
2022-08-21T22:32:26.105Z,20.49
2022-08-21T22:35:12.635Z,20.50
2022-08-21T22:37:45.978Z,20.45
2022-08-21T22:43:23.087Z,20.35
2022-08-21T22:46:00.715Z,20.30
2022-08-21T22:48:36.156Z,20.30
2022-08-21T22:51:10.258Z,20.29
2022-08-21T22:53:44.123Z,20.05
2022-08-21T22:56:31.763Z,19.99
2022-08-21T22:59:10.427Z,20.03
2022-08-21T23:01:45.499Z,19.99
2022-08-21T23:04:24.483Z,19.80
2022-08-21T23:06:59.401Z,19.72
2022-08-21T23:09:38.646Z,19.67
2022-08-21T23:12:32.952Z,19.59
2022-08-21T23:15:11.513Z,19.49
2022-08-21T23:17:50.328Z,19.56
2022-08-21T23:20:25.979Z,19.49
2022-08-21T23:23:10.757Z,19.38
2022-08-21T23:26:00.266Z,19.33
2022-08-21T23:28:46.583Z,19.49
2022-08-21T23:31:29.738Z,19.50
2022-08-21T23:37:18.881Z,19.27
2022-08-21T23:40:06.412Z,19.35
2022-08-21T23:43:05.472Z,19.33
2022-08-21T23:45:48.842Z,19.31
2022-08-21T23:48:34.048Z,19.31
2022-08-21T23:51:13.393Z,19.24
2022-08-21T23:53:59.058Z,18.92
2022-08-21T23:56:44.753Z,19.14
